createdAt,value
2022-08-26T00:00:48.209Z,81.56
2022-08-26T00:01:48.253Z,81.46
2022-08-26T00:02:48.190Z,81.82
2022-08-26T00:03:48.222Z,82.12
2022-08-26T00:04:48.175Z,81.62
2022-08-26T00:05:48.178Z,82.06
2022-08-26T00:06:48.209Z,82.17
2022-08-26T00:07:48.155Z,81.87
2022-08-26T00:08:48.166Z,81.96
2022-08-26T00:09:48.138Z,82.26
2022-08-26T00:10:48.135Z,82.67
2022-08-26T00:11:48.151Z,82.90
2022-08-26T00:12:48.119Z,82.76
2022-08-26T00:13:48.129Z,82.76
2022-08-26T00:14:48.099Z,83.01
2022-08-26T00:15:48.099Z,82.90
2022-08-26T00:16:49.033Z,83.01
2022-08-26T00:17:48.086Z,83.51
2022-08-26T00:18:48.078Z,84.05
2022-08-26T00:19:48.067Z,84.45
2022-08-26T00:20:48.060Z,84.45
2022-08-26T00:21:48.722Z,84.85
2022-08-26T00:22:48.049Z,84.80
2022-08-26T00:23:48.054Z,84.55
2022-08-26T00:24:48.194Z,84.65
2022-08-26T00:25:48.023Z,84.65
2022-08-26T00:26:48.049Z,85.16
2022-08-26T00:27:48.004Z,85.50
2022-08-26T00:28:47.994Z,85.60
2022-08-26T00:29:48.993Z,85.90
2022-08-26T00:30:47.989Z,85.80
2022-08-26T00:31:48.061Z,86.00
2022-08-26T00:32:47.971Z,86.65
2022-08-26T00:33:47.979Z,86.74
2022-08-26T00:34:47.981Z,86.70
2022-08-26T00:35:47.951Z,86.40
2022-08-26T00:36:47.971Z,86.54
2022-08-26T00:37:47.931Z,86.50
2022-08-26T00:38:47.957Z,86.24
2022-08-26T00:39:47.936Z,86.24
2022-08-26T00:40:47.908Z,86.20
2022-08-26T00:41:47.923Z,86.00
2022-08-26T00:42:47.886Z,86.44
2022-08-26T00:43:48.114Z,86.00
2022-08-26T00:44:47.882Z,85.80
2022-08-26T00:45:48.003Z,85.53
2022-08-26T00:46:47.911Z,85.70
2022-08-26T00:47:47.865Z,85.64
2022-08-26T00:48:47.844Z,85.64
2022-08-26T00:49:47.843Z,85.90
2022-08-26T00:50:47.837Z,85.64
2022-08-26T00:51:47.856Z,86.04
2022-08-26T00:52:48.294Z,86.24
2022-08-26T00:53:47.808Z,86.54
2022-08-26T00:54:47.801Z,86.04
2022-08-26T00:55:47.791Z,85.74
2022-08-26T00:56:47.822Z,86.34
2022-08-26T00:57:47.763Z,85.74
2022-08-26T00:58:48.769Z,85.84
2022-08-26T00:59:47.859Z,85.64
2022-08-26T01:00:47.775Z,86.58
2022-08-26T01:01:47.812Z,86.88
2022-08-26T01:02:47.895Z,86.28
2022-08-26T01:03:47.747Z,86.83
2022-08-26T01:04:47.722Z,86.68
2022-08-26T01:05:48.714Z,86.79
2022-08-26T01:06:47.750Z,86.88
2022-08-26T01:07:47.693Z,86.79
2022-08-26T01:08:47.691Z,86.93
2022-08-26T01:09:47.677Z,86.88
2022-08-26T01:10:47.670Z,87.08
2022-08-26T01:11:47.690Z,87.33
2022-08-26T01:12:47.661Z,87.53
2022-08-26T01:13:47.652Z,87.73
2022-08-26T01:14:47.643Z,88.13
2022-08-26T01:15:47.633Z,88.19
2022-08-26T01:16:47.672Z,88.09
2022-08-26T01:17:47.618Z,88.39
2022-08-26T01:18:47.616Z,88.39
2022-08-26T01:19:47.607Z,87.83
2022-08-26T01:20:47.594Z,87.29
2022-08-26T01:21:47.610Z,87.69
2022-08-26T01:22:47.582Z,87.49
2022-08-26T01:23:47.574Z,87.29
2022-08-26T01:24:47.564Z,87.29
2022-08-26T01:25:47.561Z,87.69
2022-08-26T01:26:47.578Z,87.79
2022-08-26T01:27:49.204Z,87.79
2022-08-26T01:28:51.733Z,87.79
2022-08-26T01:29:47.539Z,87.79
2022-08-26T01:30:47.526Z,87.99
2022-08-26T01:31:47.664Z,87.59
2022-08-26T01:32:47.507Z,87.29
2022-08-26T01:33:47.500Z,87.35
2022-08-26T01:34:47.489Z,87.49
2022-08-26T01:35:47.483Z,87.08
2022-08-26T01:36:51.167Z,87.08
2022-08-26T01:37:48.470Z,87.08
2022-08-26T01:38:47.480Z,87.04
2022-08-26T01:39:47.473Z,86.94
2022-08-26T01:40:47.450Z,87.29
2022-08-26T01:41:47.467Z,87.49
2022-08-26T01:42:48.429Z,87.69
2022-08-26T01:43:47.435Z,87.53
2022-08-26T01:44:47.411Z,87.73
2022-08-26T01:45:47.479Z,87.79
2022-08-26T01:46:47.447Z,87.93
2022-08-26T01:47:47.394Z,88.13
2022-08-26T01:48:47.385Z,88.03
2022-08-26T01:49:48.376Z,88.13
2022-08-26T01:50:47.379Z,88.54
2022-08-26T01:51:47.398Z,88.43
2022-08-26T01:52:50.004Z,88.43
2022-08-26T01:54:59.927Z,88.43
2022-08-26T01:55:59.949Z,88.03
2022-08-26T01:56:59.974Z,87.83
2022-08-26T01:57:59.931Z,87.83
2022-08-26T01:58:59.929Z,87.93
2022-08-26T01:59:59.915Z,88.03
2022-08-26T02:00:59.963Z,88.18
2022-08-26T02:01:59.926Z,88.18
2022-08-26T02:02:59.894Z,88.58
2022-08-26T02:03:59.887Z,88.38
2022-08-26T02:04:59.934Z,88.38
2022-08-26T02:05:59.864Z,89.28
2022-08-26T02:07:01.027Z,89.32
2022-08-26T02:08:00.992Z,89.73
2022-08-26T02:09:00.988Z,90.23
2022-08-26T02:10:00.977Z,90.73
2022-08-26T02:11:00.979Z,90.13
2022-08-26T02:12:00.995Z,90.94
2022-08-26T02:13:01.006Z,90.84
2022-08-26T02:14:00.952Z,91.14
2022-08-26T02:15:00.990Z,91.14
2022-08-26T02:16:01.000Z,91.44
2022-08-26T02:17:00.948Z,92.25
2022-08-26T02:18:00.927Z,91.44
2022-08-26T02:19:00.904Z,92.14
2022-08-26T02:20:00.895Z,92.25
2022-08-26T02:21:00.890Z,91.34
2022-08-26T02:22:00.913Z,90.94
2022-08-26T02:23:00.918Z,90.23
2022-08-26T02:24:00.881Z,90.44
2022-08-26T02:25:00.854Z,90.44
2022-08-26T02:26:00.846Z,90.03
2022-08-26T02:27:00.871Z,89.83
2022-08-26T02:28:00.878Z,90.84
2022-08-26T02:29:00.828Z,90.88
2022-08-26T02:30:00.837Z,90.68
2022-08-26T02:31:00.812Z,91.18
2022-08-26T02:32:00.832Z,90.88
2022-08-26T02:33:00.799Z,90.84
2022-08-26T02:34:00.792Z,90.94
2022-08-26T02:35:00.781Z,91.04
2022-08-26T02:36:00.777Z,90.03
2022-08-26T02:37:00.853Z,90.13
2022-08-26T02:38:00.755Z,90.17
2022-08-26T02:39:00.746Z,90.07
2022-08-26T02:40:00.802Z,90.17
2022-08-26T02:41:00.743Z,90.98
2022-08-26T02:42:00.760Z,90.98
2022-08-26T02:43:00.712Z,90.88
2022-08-26T02:44:00.703Z,90.28
2022-08-26T02:45:00.710Z,90.17
2022-08-26T02:46:02.128Z,90.88
2022-08-26T02:47:01.764Z,91.08
2022-08-26T02:48:00.685Z,91.18
2022-08-26T02:49:00.671Z,90.98
2022-08-26T02:50:00.677Z,92.19
2022-08-26T02:51:00.653Z,92.54
2022-08-26T02:52:00.653Z,92.23
2022-08-26T02:53:00.670Z,92.33
2022-08-26T02:54:00.626Z,92.43
2022-08-26T02:55:00.633Z,92.54
2022-08-26T02:56:00.608Z,92.54
2022-08-26T02:57:00.606Z,92.29
2022-08-26T02:58:00.630Z,92.39
2022-08-26T02:59:00.601Z,92.49
2022-08-26T03:00:00.586Z,92.39
2022-08-26T03:01:01.508Z,92.59
2022-08-26T03:02:00.688Z,92.90
2022-08-26T03:03:00.583Z,92.29
2022-08-26T03:04:00.555Z,92.59
2022-08-26T03:05:02.302Z,92.59
2022-08-26T03:06:00.534Z,92.09
2022-08-26T03:07:00.541Z,91.89
2022-08-26T03:08:00.549Z,91.89
2022-08-26T03:09:00.505Z,92.19
2022-08-26T03:10:00.510Z,91.69
2022-08-26T03:11:01.678Z,91.08
2022-08-26T03:12:00.488Z,91.08
2022-08-26T03:13:00.573Z,91.08
2022-08-26T03:14:00.483Z,90.78
2022-08-26T03:15:00.462Z,90.78
2022-08-26T03:16:00.517Z,90.94
2022-08-26T03:17:00.454Z,90.53
2022-08-26T03:18:00.486Z,90.28
2022-08-26T03:19:00.424Z,90.13
2022-08-26T03:20:01.423Z,90.58
2022-08-26T03:21:00.415Z,90.73
2022-08-26T03:22:00.406Z,91.14
2022-08-26T03:23:00.445Z,91.24
2022-08-26T03:24:00.509Z,91.08
2022-08-26T03:25:00.386Z,91.04
2022-08-26T03:26:00.381Z,91.14
2022-08-26T03:27:00.372Z,91.38
2022-08-26T03:28:01.386Z,91.78
2022-08-26T03:29:00.352Z,92.49
2022-08-26T03:30:00.342Z,92.33
2022-08-26T03:31:00.391Z,92.74
2022-08-26T03:32:00.330Z,92.74
2022-08-26T03:33:00.358Z,93.08
2022-08-26T03:34:00.310Z,94.19
2022-08-26T03:35:00.307Z,93.74
2022-08-26T03:36:00.298Z,93.44
2022-08-26T03:37:00.287Z,93.59
2022-08-26T03:38:00.305Z,93.38
2022-08-26T03:39:00.271Z,92.98
2022-08-26T03:40:00.395Z,92.94
2022-08-26T03:41:01.260Z,92.94
2022-08-26T03:42:00.260Z,92.83
2022-08-26T03:43:00.269Z,92.94
2022-08-26T03:44:01.904Z,92.43
2022-08-26T03:45:01.226Z,92.54
2022-08-26T03:46:00.223Z,92.43
2022-08-26T03:47:00.234Z,92.19
2022-08-26T03:48:00.234Z,92.29
2022-08-26T03:49:00.195Z,92.39
2022-08-26T03:50:00.198Z,92.29
2022-08-26T03:51:00.185Z,92.49
2022-08-26T03:52:00.180Z,91.99
2022-08-26T03:53:00.192Z,91.99
2022-08-26T03:54:00.165Z,92.29
2022-08-26T03:55:00.167Z,91.38
2022-08-26T03:56:00.144Z,91.08
2022-08-26T03:57:00.140Z,90.98
2022-08-26T03:58:00.160Z,91.38
2022-08-26T03:59:00.118Z,91.33
2022-08-26T04:00:00.128Z,91.33
2022-08-26T04:01:00.112Z,91.53
2022-08-26T04:02:00.183Z,91.42
2022-08-26T04:03:00.198Z,91.33
2022-08-26T04:04:00.835Z,91.73
2022-08-26T04:05:00.073Z,91.53
2022-08-26T04:06:00.064Z,91.73
2022-08-26T04:07:00.056Z,92.33
2022-08-26T04:08:00.082Z,92.43
2022-08-26T04:09:00.053Z,92.13
2022-08-26T04:10:00.032Z,92.74
2022-08-26T04:11:00.028Z,93.99
2022-08-26T04:12:00.023Z,93.99
2022-08-26T04:13:00.039Z,94.64
2022-08-26T04:14:00.011Z,94.64
2022-08-26T04:15:00.011Z,94.54
2022-08-26T04:16:00.040Z,94.34
2022-08-26T04:16:59.980Z,94.44
2022-08-26T04:18:00.000Z,94.09
2022-08-26T04:18:59.963Z,94.44
2022-08-26T04:19:59.956Z,94.34
2022-08-26T04:20:59.951Z,94.19
2022-08-26T04:21:59.936Z,94.64
2022-08-26T04:22:59.956Z,93.79
2022-08-26T04:23:59.920Z,94.13
2022-08-26T04:25:00.916Z,93.89
2022-08-26T04:25:59.911Z,93.69
2022-08-26T04:26:59.900Z,93.79
2022-08-26T04:27:59.921Z,93.99
2022-08-26T04:28:59.881Z,94.09
2022-08-26T04:29:59.875Z,93.99
2022-08-26T04:30:59.921Z,93.54
2022-08-26T04:31:59.867Z,93.29
2022-08-26T04:32:59.877Z,92.33
2022-08-26T04:33:59.842Z,92.98
2022-08-26T04:34:59.852Z,93.29
2022-08-26T04:35:59.826Z,94.29
2022-08-26T04:36:59.820Z,93.84
2022-08-26T04:37:59.834Z,94.09
2022-08-26T04:38:59.817Z,93.53
2022-08-26T04:39:59.894Z,93.38
2022-08-26T04:40:59.788Z,93.13
2022-08-26T04:41:59.790Z,93.33
2022-08-26T04:42:59.799Z,92.82
2022-08-26T04:43:59.780Z,93.02
2022-08-26T04:44:59.773Z,93.08
2022-08-26T04:46:00.821Z,92.93
2022-08-26T04:46:59.753Z,92.93
2022-08-26T04:47:59.771Z,92.27
2022-08-26T04:48:59.756Z,92.42
2022-08-26T04:49:59.720Z,92.58
2022-08-26T04:50:59.715Z,92.07
2022-08-26T04:51:59.710Z,91.97
2022-08-26T04:52:59.749Z,92.72
2022-08-26T04:53:59.710Z,92.32
2022-08-26T04:54:59.673Z,92.62
2022-08-26T04:55:59.689Z,92.58
2022-08-26T04:56:59.671Z,93.02
2022-08-26T04:57:59.682Z,92.47
2022-08-26T04:58:59.663Z,92.47
2022-08-26T04:59:59.640Z,92.58
2022-08-26T05:00:59.659Z,92.54
2022-08-26T05:01:59.738Z,91.63
2022-08-26T05:02:59.635Z,90.37
2022-08-26T05:03:59.647Z,90.68
2022-08-26T05:04:59.600Z,89.97
2022-08-26T05:05:59.595Z,89.97
2022-08-26T05:06:59.862Z,89.57
2022-08-26T05:08:00.599Z,90.37
2022-08-26T05:08:59.568Z,90.58
2022-08-26T05:09:59.557Z,90.98
2022-08-26T05:10:59.556Z,89.97
2022-08-26T05:11:59.544Z,90.64
2022-08-26T05:12:59.563Z,89.93
2022-08-26T05:14:02.232Z,89.43
2022-08-26T05:15:00.521Z,89.63
2022-08-26T05:16:01.192Z,89.93
2022-08-26T05:16:59.508Z,90.33
2022-08-26T05:17:59.525Z,89.93
2022-08-26T05:18:59.489Z,89.23
2022-08-26T05:19:59.481Z,89.08
2022-08-26T05:20:59.478Z,88.58
2022-08-26T05:21:59.468Z,88.68
2022-08-26T05:22:59.489Z,87.83
2022-08-26T05:23:59.464Z,87.59
2022-08-26T05:24:59.441Z,86.79
2022-08-26T05:26:00.569Z,85.60
2022-08-26T05:26:59.428Z,84.69
2022-08-26T05:27:59.454Z,84.69
2022-08-26T05:28:59.419Z,85.84
2022-08-26T05:29:59.405Z,86.38
2022-08-26T05:30:59.444Z,86.88
2022-08-26T05:31:59.392Z,86.79
2022-08-26T05:32:59.407Z,87.49
2022-08-26T05:33:59.375Z,87.29
2022-08-26T05:34:59.373Z,87.59
2022-08-26T05:35:59.362Z,87.79
2022-08-26T05:36:59.348Z,87.79
2022-08-26T05:37:59.370Z,88.09
2022-08-26T05:38:59.341Z,88.09
2022-08-26T05:39:59.385Z,87.89
2022-08-26T05:40:59.318Z,87.99
2022-08-26T05:41:59.311Z,87.99
2022-08-26T05:42:59.332Z,87.69
2022-08-26T05:43:59.294Z,87.55
2022-08-26T05:44:59.307Z,87.79
2022-08-26T05:45:59.334Z,87.49
2022-08-26T05:46:59.268Z,87.89
2022-08-26T05:47:59.283Z,88.05
2022-08-26T05:48:59.254Z,87.85
2022-08-26T05:49:59.251Z,87.24
2022-08-26T05:50:59.235Z,87.04
2022-08-26T05:51:59.227Z,87.55
2022-08-26T05:52:59.246Z,87.04
2022-08-26T05:53:59.210Z,86.85
2022-08-26T05:54:59.210Z,86.54
2022-08-26T05:55:59.198Z,86.74
2022-08-26T05:56:59.226Z,86.54
2022-08-26T05:57:59.209Z,86.74
2022-08-26T05:58:59.786Z,86.74
2022-08-26T05:59:59.166Z,86.70
2022-08-26T06:00:59.179Z,86.90
2022-08-26T06:01:59.233Z,86.70
2022-08-26T06:02:59.244Z,86.50
2022-08-26T06:03:59.654Z,86.40
2022-08-26T06:04:59.127Z,86.60
2022-08-26T06:05:59.118Z,86.40
2022-08-26T06:06:59.098Z,86.50
2022-08-26T06:07:59.132Z,86.50
2022-08-26T06:08:59.092Z,86.70
2022-08-26T06:10:28.214Z,86.70
2022-08-26T06:11:01.100Z,87.10
2022-08-26T06:11:59.085Z,86.70
2022-08-26T06:12:59.087Z,87.24
2022-08-26T06:14:03.254Z,87.60
2022-08-26T06:15:00.041Z,87.75
2022-08-26T06:15:59.085Z,88.05
2022-08-26T06:16:59.035Z,88.09
2022-08-26T06:17:59.053Z,88.09
2022-08-26T06:18:59.008Z,88.79
2022-08-26T06:19:59.003Z,88.39
2022-08-26T06:20:58.987Z,88.05
2022-08-26T06:21:58.983Z,88.39
2022-08-26T06:22:59.006Z,87.95
2022-08-26T06:23:59.031Z,88.25
2022-08-26T06:24:58.959Z,88.41
2022-08-26T06:25:58.958Z,88.01
2022-08-26T06:26:58.952Z,86.66
2022-08-26T06:27:58.976Z,86.30
2022-08-26T06:28:58.929Z,87.24
2022-08-26T06:29:58.914Z,86.80
2022-08-26T06:30:58.967Z,87.55
2022-08-26T06:31:58.909Z,88.09
2022-08-26T06:32:59.001Z,88.19
2022-08-26T06:33:58.892Z,89.24
2022-08-26T06:34:58.880Z,89.04
2022-08-26T06:35:58.880Z,88.94
2022-08-26T06:36:58.870Z,89.54
2022-08-26T06:37:58.858Z,89.04
2022-08-26T06:38:58.878Z,89.34
2022-08-26T06:39:58.977Z,89.14
2022-08-26T06:40:59.841Z,89.00
2022-08-26T06:41:59.828Z,88.25
2022-08-26T06:42:58.817Z,88.45
2022-08-26T06:43:58.839Z,87.60
2022-08-26T06:44:58.802Z,87.37
2022-08-26T06:45:58.883Z,86.52
2022-08-26T06:46:58.802Z,85.78
2022-08-26T06:47:58.806Z,84.29
2022-08-26T06:48:58.801Z,83.29
2022-08-26T06:49:58.766Z,82.65
2022-08-26T06:50:58.758Z,81.55
2022-08-26T06:51:59.057Z,81.24
2022-08-26T06:52:58.747Z,81.74
2022-08-26T06:53:58.761Z,81.74
2022-08-26T06:54:58.724Z,80.94
2022-08-26T06:55:58.722Z,82.05
2022-08-26T06:56:58.737Z,82.24
2022-08-26T06:57:58.836Z,82.55
2022-08-26T06:58:58.726Z,82.15
2022-08-26T06:59:58.696Z,82.31
2022-08-26T07:01:03.074Z,82.21
2022-08-26T07:02:00.719Z,81.07
2022-08-26T07:02:58.806Z,81.43
2022-08-26T07:03:58.689Z,80.73
2022-08-26T07:04:58.669Z,80.36
2022-08-26T07:05:58.650Z,80.97
2022-08-26T07:06:58.644Z,81.23
2022-08-26T07:07:58.667Z,80.49
2022-08-26T07:08:58.641Z,80.09
2022-08-26T07:09:58.687Z,79.55
2022-08-26T07:10:58.602Z,78.75
2022-08-26T07:11:58.596Z,78.42
2022-08-26T07:12:58.634Z,78.12
2022-08-26T07:13:58.619Z,78.12
2022-08-26T07:14:58.570Z,78.08
2022-08-26T07:15:58.574Z,77.78
2022-08-26T07:16:58.566Z,77.72
2022-08-26T07:17:58.570Z,78.42
2022-08-26T07:18:58.569Z,78.22
2022-08-26T07:19:58.546Z,78.28
2022-08-26T07:20:58.533Z,78.08
2022-08-26T07:21:58.515Z,77.28
2022-08-26T07:22:58.516Z,76.88
2022-08-26T07:24:01.290Z,77.28
2022-08-26T07:24:59.491Z,78.08
2022-08-26T07:25:58.507Z,77.58
2022-08-26T07:26:58.484Z,77.18
2022-08-26T07:27:58.598Z,77.68
2022-08-26T07:28:58.500Z,78.44
2022-08-26T07:29:58.469Z,77.74
2022-08-26T07:30:58.554Z,76.77
2022-08-26T07:31:58.440Z,76.31
2022-08-26T07:32:58.434Z,75.67
2022-08-26T07:33:58.459Z,75.41
2022-08-26T07:34:58.424Z,76.21
2022-08-26T07:35:58.411Z,75.11
2022-08-26T07:36:58.802Z,76.31
2022-08-26T07:37:58.394Z,75.34
2022-08-26T07:38:58.415Z,74.44
2022-08-26T07:39:59.419Z,74.44
2022-08-26T07:40:58.370Z,74.51
2022-08-26T07:41:58.377Z,74.07
2022-08-26T07:42:58.393Z,73.57
2022-08-26T07:43:58.370Z,74.07
2022-08-26T07:44:58.354Z,74.44
2022-08-26T07:45:58.326Z,75.40
2022-08-26T07:46:58.319Z,74.51
2022-08-26T07:47:58.317Z,74.41
2022-08-26T07:48:58.347Z,74.21
2022-08-26T07:49:58.305Z,74.01
2022-08-26T07:50:58.298Z,74.27
2022-08-26T07:51:58.286Z,74.07
2022-08-26T07:52:58.273Z,75.14
2022-08-26T07:55:08.374Z,74.43
2022-08-26T07:56:08.373Z,73.17
2022-08-26T07:57:09.395Z,71.45
2022-08-26T07:58:09.493Z,70.52
2022-08-26T07:59:13.992Z,69.95
2022-08-26T08:00:10.474Z,69.36
2022-08-26T08:01:09.500Z,68.73
2022-08-26T08:02:09.466Z,67.71
2022-08-26T08:03:09.642Z,67.41
2022-08-26T08:04:10.272Z,67.57
2022-08-26T08:05:09.496Z,67.47
2022-08-26T08:06:09.436Z,66.95
2022-08-26T08:07:11.517Z,66.88
2022-08-26T08:08:26.890Z,68.33
2022-08-26T08:09:10.440Z,68.57
2022-08-26T08:10:11.405Z,68.83
2022-08-26T08:11:10.396Z,69.26
2022-08-26T08:12:09.404Z,68.40
2022-08-26T08:13:09.498Z,68.80
2022-08-26T08:14:11.832Z,69.20
2022-08-26T08:15:09.365Z,66.58
2022-08-26T08:16:12.430Z,67.84
2022-08-26T08:17:09.423Z,67.64
2022-08-26T08:18:15.804Z,68.04
2022-08-26T08:19:10.365Z,68.40
2022-08-26T08:20:09.324Z,67.80
2022-08-26T08:21:21.449Z,67.90
2022-08-26T08:22:18.024Z,67.84
2022-08-26T08:23:10.301Z,68.96
2022-08-26T08:24:09.320Z,69.26
2022-08-26T08:25:10.502Z,68.86
2022-08-26T08:26:09.279Z,67.41
2022-08-26T08:27:09.271Z,67.97
2022-08-26T08:28:09.396Z,66.95
2022-08-26T08:29:09.279Z,66.13
2022-08-26T08:30:09.248Z,65.95
2022-08-26T08:31:09.269Z,66.09
2022-08-26T08:32:11.605Z,66.28
2022-08-26T08:33:10.225Z,66.09
2022-08-26T08:34:09.251Z,68.46
2022-08-26T08:35:10.895Z,69.49
2022-08-26T08:36:09.377Z,69.06
2022-08-26T08:37:10.837Z,69.06
2022-08-26T08:38:10.221Z,69.06
2022-08-26T08:39:09.253Z,68.73
2022-08-26T08:40:09.207Z,68.01
2022-08-26T08:41:09.166Z,67.08
2022-08-26T08:42:09.160Z,66.06
2022-08-26T08:43:09.290Z,65.83
2022-08-26T08:44:09.187Z,65.49
2022-08-26T08:45:09.146Z,66.25
2022-08-26T08:46:09.179Z,65.99
2022-08-26T08:47:09.128Z,66.71
2022-08-26T08:48:09.255Z,67.90
2022-08-26T08:49:09.138Z,66.39
2022-08-26T08:50:09.099Z,66.58
2022-08-26T08:51:09.098Z,65.86
2022-08-26T08:52:09.079Z,65.17
2022-08-26T08:53:09.199Z,65.89
2022-08-26T08:54:09.109Z,65.79
2022-08-26T08:55:11.027Z,65.89
2022-08-26T08:56:09.053Z,65.76
2022-08-26T08:57:09.051Z,65.26
2022-08-26T08:58:09.241Z,64.77
2022-08-26T08:59:09.057Z,64.04
2022-08-26T09:00:09.029Z,62.63
2022-08-26T09:01:09.881Z,63.98
2022-08-26T09:02:09.036Z,62.50
2022-08-26T09:03:09.000Z,62.93
2022-08-26T09:04:09.039Z,62.93
2022-08-26T09:05:08.990Z,62.01
2022-08-26T09:06:09.980Z,62.24
2022-08-26T09:07:08.977Z,61.58
2022-08-26T09:08:09.092Z,62.50
2022-08-26T09:09:08.984Z,63.35
2022-08-26T09:10:08.955Z,64.04
2022-08-26T09:11:08.939Z,62.70
2022-08-26T09:12:09.939Z,62.57
2022-08-26T09:13:08.933Z,62.63
2022-08-26T09:14:08.964Z,61.25
2022-08-26T09:15:08.922Z,62.40
2022-08-26T09:16:10.089Z,62.40
2022-08-26T09:17:08.970Z,61.88
2022-08-26T09:18:09.036Z,61.88
2022-08-26T09:19:08.911Z,62.14
2022-08-26T09:20:08.879Z,62.50
2022-08-26T09:21:08.879Z,63.12
2022-08-26T09:22:09.540Z,63.52
2022-08-26T09:23:09.992Z,63.39
2022-08-26T09:24:11.339Z,61.98
2022-08-26T09:25:11.161Z,62.04
2022-08-26T09:26:08.839Z,61.13
2022-08-26T09:27:08.827Z,60.60
2022-08-26T09:28:09.082Z,60.38
2022-08-26T09:29:08.943Z,60.15
2022-08-26T09:30:08.809Z,60.21
2022-08-26T09:31:11.338Z,61.35
2022-08-26T09:32:09.815Z,60.14
2022-08-26T09:33:11.194Z,60.96
2022-08-26T09:34:08.815Z,61.05
2022-08-26T09:35:08.773Z,61.03
2022-08-26T09:36:08.766Z,59.78
2022-08-26T09:37:08.766Z,58.87
2022-08-26T09:38:11.675Z,58.37
2022-08-26T09:39:09.766Z,58.94
2022-08-26T09:40:08.817Z,57.90
2022-08-26T09:41:08.893Z,56.85
2022-08-26T09:42:09.569Z,55.72
2022-08-26T09:43:08.720Z,56.07
2022-08-26T09:44:08.742Z,55.97
2022-08-26T09:45:09.716Z,55.77
2022-08-26T09:46:08.709Z,55.65
2022-08-26T09:47:08.687Z,55.35
2022-08-26T09:48:08.898Z,54.44
2022-08-26T09:49:08.713Z,54.71
2022-08-26T09:50:09.808Z,54.66
2022-08-26T09:51:08.665Z,55.77
2022-08-26T09:52:08.719Z,55.87
2022-08-26T09:53:09.957Z,55.38
2022-08-26T09:54:08.636Z,55.38
2022-08-26T09:55:08.648Z,55.28
2022-08-26T09:56:08.725Z,55.68
2022-08-26T09:57:08.615Z,55.38
2022-08-26T09:58:09.178Z,54.49
2022-08-26T09:59:11.162Z,54.60
2022-08-26T10:00:08.618Z,55.45
2022-08-26T10:01:08.630Z,53.66
2022-08-26T10:02:12.297Z,53.92
2022-08-26T10:03:08.735Z,53.56
2022-08-26T10:04:08.666Z,53.92
2022-08-26T10:05:09.448Z,54.10
2022-08-26T10:06:08.547Z,52.67
2022-08-26T10:07:08.540Z,54.05
2022-08-26T10:08:08.553Z,56.27
2022-08-26T10:09:09.845Z,56.18
2022-08-26T10:10:09.553Z,56.25
2022-08-26T10:11:08.511Z,56.12
2022-08-26T10:12:08.509Z,54.20
2022-08-26T10:13:08.622Z,53.68
2022-08-26T10:14:08.486Z,52.67
2022-08-26T10:15:08.520Z,52.60
2022-08-26T10:16:10.847Z,52.43
2022-08-26T10:17:08.482Z,52.65
2022-08-26T10:18:08.564Z,53.69
2022-08-26T10:19:08.462Z,54.38
2022-08-26T10:20:16.811Z,54.90
2022-08-26T10:21:09.439Z,54.70
2022-08-26T10:22:08.451Z,52.68
2022-08-26T10:23:08.611Z,52.36
2022-08-26T10:24:08.481Z,52.16
2022-08-26T10:25:08.478Z,51.47
2022-08-26T10:26:08.402Z,52.03
2022-08-26T10:27:08.406Z,51.86
2022-08-26T10:28:08.530Z,52.38
2022-08-26T10:29:08.393Z,52.33
2022-08-26T10:30:08.402Z,51.45
2022-08-26T10:31:08.373Z,50.85
2022-08-26T10:32:08.421Z,49.70
2022-08-26T10:33:09.557Z,49.70
2022-08-26T10:34:08.373Z,49.87
2022-08-26T10:35:08.368Z,49.97
2022-08-26T10:36:08.332Z,49.75
2022-08-26T10:37:13.504Z,49.26
2022-08-26T10:38:09.568Z,47.22
2022-08-26T10:39:08.319Z,49.30
2022-08-26T10:40:09.377Z,50.51
2022-08-26T10:41:09.931Z,49.55
2022-08-26T10:42:08.314Z,51.54
2022-08-26T10:43:11.367Z,51.94
2022-08-26T10:44:09.275Z,52.70
2022-08-26T10:45:12.007Z,49.75
2022-08-26T10:46:09.331Z,49.97
2022-08-26T10:47:08.258Z,49.67
2022-08-26T10:48:08.486Z,50.14
2022-08-26T10:49:08.256Z,49.35
2022-08-26T10:50:08.277Z,47.97
2022-08-26T10:51:08.626Z,49.18
2022-08-26T10:52:12.388Z,48.86
2022-08-26T10:53:09.216Z,48.79
2022-08-26T10:54:08.336Z,49.38
2022-08-26T10:55:08.482Z,49.87
2022-08-26T10:56:18.766Z,50.59
2022-08-26T10:57:09.739Z,50.76
2022-08-26T10:58:08.918Z,50.76
2022-08-26T10:59:12.273Z,50.95
2022-08-26T11:00:08.188Z,51.12
2022-08-26T11:01:10.175Z,49.82
2022-08-26T11:02:08.150Z,51.52
2022-08-26T11:03:14.914Z,52.31
2022-08-26T11:04:09.195Z,52.11
2022-08-26T11:05:08.158Z,52.70
2022-08-26T11:06:08.123Z,52.50
2022-08-26T11:07:08.123Z,53.02
2022-08-26T11:08:08.254Z,52.70
2022-08-26T11:09:08.120Z,52.97
2022-08-26T11:10:08.102Z,52.26
2022-08-26T11:11:08.089Z,51.86
2022-08-26T11:12:10.292Z,52.38
2022-08-26T11:13:08.320Z,52.90
2022-08-26T11:14:08.109Z,52.31
2022-08-26T11:15:08.061Z,52.40
2022-08-26T11:16:08.063Z,52.48
2022-08-26T11:17:08.045Z,52.48
2022-08-26T11:18:08.304Z,52.26
2022-08-26T11:19:08.074Z,51.86
2022-08-26T11:20:13.261Z,51.45
2022-08-26T11:21:10.263Z,50.76
2022-08-26T11:22:08.020Z,50.54
2022-08-26T11:23:08.000Z,50.81
2022-08-26T11:24:08.044Z,51.00
2022-08-26T11:25:07.989Z,49.60
2022-08-26T11:26:08.203Z,49.80
2022-08-26T11:27:07.981Z,48.01
2022-08-26T11:28:08.267Z,48.91
2022-08-26T11:29:12.692Z,49.29
2022-08-26T11:30:08.948Z,49.21
2022-08-26T11:31:07.965Z,49.60
2022-08-26T11:32:07.948Z,48.82
2022-08-26T11:33:08.216Z,48.52
2022-08-26T11:34:10.789Z,48.60
2022-08-26T11:35:07.922Z,47.42
2022-08-26T11:36:12.225Z,47.61
2022-08-26T11:37:07.938Z,47.20
2022-08-26T11:38:08.029Z,48.50
2022-08-26T11:39:07.914Z,47.71
2022-08-26T11:40:07.959Z,47.39
2022-08-26T11:41:07.875Z,46.93
2022-08-26T11:42:07.873Z,47.30
2022-08-26T11:43:07.858Z,46.93
2022-08-26T11:44:07.862Z,47.88
2022-08-26T11:45:07.876Z,49.35
2022-08-26T11:46:09.234Z,49.16
2022-08-26T11:47:07.831Z,48.47
2022-08-26T11:48:07.879Z,47.78
2022-08-26T11:49:07.855Z,48.08
2022-08-26T11:50:07.831Z,47.49
2022-08-26T11:51:08.459Z,48.00
2022-08-26T11:52:07.823Z,48.69
2022-08-26T11:53:07.874Z,48.59
2022-08-26T11:54:07.787Z,48.59
2022-08-26T11:55:07.797Z,49.30
2022-08-26T11:56:07.765Z,48.94
2022-08-26T11:57:09.367Z,49.65
2022-08-26T11:58:08.882Z,51.72
2022-08-26T11:59:07.781Z,52.95
2022-08-26T12:00:09.482Z,53.84
2022-08-26T12:01:09.596Z,54.33
2022-08-26T12:02:07.747Z,54.33
2022-08-26T12:03:07.957Z,53.54
2022-08-26T12:04:07.831Z,54.13
2022-08-26T12:05:07.740Z,53.64
2022-08-26T12:06:07.705Z,54.03
2022-08-26T12:07:08.768Z,54.55
2022-08-26T12:08:08.009Z,54.43
2022-08-26T12:09:07.771Z,54.46
2022-08-26T12:10:07.753Z,54.46
2022-08-26T12:11:07.705Z,54.95
2022-08-26T12:12:07.679Z,55.12
2022-08-26T12:13:07.671Z,54.55
2022-08-26T12:14:07.650Z,54.93
2022-08-26T12:15:07.669Z,55.05
2022-08-26T12:16:07.830Z,55.02
2022-08-26T12:17:07.643Z,54.53
2022-08-26T12:18:07.814Z,54.72
2022-08-26T12:19:07.632Z,54.55
2022-08-26T12:20:07.627Z,54.75
2022-08-26T12:21:07.600Z,54.60
2022-08-26T12:22:07.604Z,55.07
2022-08-26T12:23:07.574Z,54.68
2022-08-26T12:24:07.570Z,54.47
2022-08-26T12:25:07.594Z,54.18
2022-08-26T12:26:07.552Z,54.60
2022-08-26T12:27:07.555Z,54.43
2022-08-26T12:28:07.694Z,54.13
2022-08-26T12:29:19.916Z,53.74
2022-08-26T12:30:08.710Z,54.03
2022-08-26T12:31:07.532Z,54.43
2022-08-26T12:32:07.532Z,54.43
2022-08-26T12:33:22.288Z,53.84
2022-08-26T12:34:17.376Z,54.13
2022-08-26T12:35:08.517Z,53.64
2022-08-26T12:36:07.497Z,53.84
2022-08-26T12:37:07.510Z,53.64
2022-08-26T12:38:07.691Z,53.42
2022-08-26T12:39:07.479Z,52.92
2022-08-26T12:40:07.527Z,52.73
2022-08-26T12:41:07.448Z,52.21
2022-08-26T12:42:07.438Z,52.33
2022-08-26T12:43:07.433Z,52.01
2022-08-26T12:44:07.422Z,51.42
2022-08-26T12:45:07.438Z,52.58
2022-08-26T12:46:07.459Z,51.18
2022-08-26T12:47:07.436Z,51.10
2022-08-26T12:48:07.446Z,50.71
2022-08-26T12:49:07.388Z,51.10
2022-08-26T12:50:07.435Z,50.42
2022-08-26T12:51:07.429Z,51.12
2022-08-26T12:52:07.392Z,50.83
2022-08-26T12:53:07.358Z,51.12
2022-08-26T12:54:07.382Z,50.83
2022-08-26T12:55:07.351Z,49.75